Time;durP1;ratioP1;P1;durP2;ratioP2;P2;SDS_P1;SDS_P2;PMS_P1;PMS_P2;Temp;Humidity;BMP_temperature;BMP_pressure;BME280_temperature;BME280_humidity;BME280_pressure;Samples;Min_cycle;Max_cycle;Signal;HPM_P1;HPM_P2
2023/01/21 00:02:09;;;;;;;28.90;18.10;;;;;;;4.55;87.34;99019.69;5012984;28;20113;-75
2023/01/21 00:04:36;;;;;;;25.92;16.17;;;;;;;4.67;87.49;99015.59;5014246;28;20022;-75
2023/01/21 00:07:03;;;;;;;24.65;16.63;;;;;;;4.60;86.72;99010.47;5033767;28;20534;-75
2023/01/21 00:09:28;;;;;;;25.00;15.10;;;;;;;4.60;85.89;99013.22;5034036;28;20451;-75
2023/01/21 00:11:54;;;;;;;31.05;17.25;;;;;;;4.54;84.58;99015.28;5033241;28;20057;-75
2023/01/21 00:14:19;;;;;;;26.80;17.05;;;;;;;4.31;84.70;99026.22;5033536;28;20026;-74
2023/01/21 00:16:44;;;;;;;26.63;15.35;;;;;;;4.35;86.31;99016.19;5033383;28;20084;-75
2023/01/21 00:19:10;;;;;;;23.65;15.02;;;;;;;4.45;86.65;99017.94;5033656;28;20522;-75
2023/01/21 00:21:35;;;;;;;29.88;16.60;;;;;;;4.24;85.73;99011.97;5033141;28;20404;-75
2023/01/21 00:24:01;;;;;;;24.58;14.27;;;;;;;4.33;87.67;99018.41;5033416;28;20405;-75
2023/01/21 00:26:26;;;;;;;24.20;15.85;;;;;;;4.44;87.22;99023.78;5033292;28;20450;-74
2023/01/21 00:28:52;;;;;;;24.85;15.35;;;;;;;4.40;85.90;99017.22;5033572;28;20018;-74
2023/01/21 00:31:17;;;;;;;27.98;18.85;;;;;;;3.95;84.55;99035.13;5048900;28;20017;-75
2023/01/21 00:33:43;;;;;;;32.85;21.52;;;;;;;3.44;87.92;99029.25;5032950;28;20017;-74
2023/01/21 00:36:13;;;;;;;29.75;19.33;;;;;;;3.86;90.47;99036.91;5031050;28;20029;-75
2023/01/21 00:38:39;;;;;;;33.75;20.70;;;;;;;3.84;88.39;99039.16;5032062;28;20411;-75
2023/01/21 00:41:10;;;;;;;33.95;20.88;;;;;;;3.87;87.67;99030.28;5033127;28;20026;-74
2023/01/21 00:43:36;;;;;;;31.95;17.67;;;;;;;3.92;88.96;99036.56;5032732;28;20512;-75
2023/01/21 00:46:02;;;;;;;30.77;17.55;;;;;;;3.47;88.67;99020.34;5014933;28;20037;-74
2023/01/21 00:48:28;;;;;;;27.92;17.30;;;;;;;3.06;89.59;99013.44;5025575;28;20025;-75
2023/01/21 00:50:57;;;;;;;26.55;16.95;;;;;;;2.70;91.10;99007.53;5033237;28;20017;-74
2023/01/21 00:53:23;;;;;;;22.50;13.85;;;;;;;2.69;92.50;99014.97;5033170;28;20025;-74
2023/01/21 00:55:49;;;;;;;26.88;16.95;;;;;;;2.73;93.20;99021.59;5033098;28;20041;-74
2023/01/21 00:58:14;;;;;;;24.95;15.00;;;;;;;2.81;93.06;99017.34;5015516;28;20037;-75
2023/01/21 01:00:40;;;;;;;20.42;12.93;;;;;;;2.85;92.71;99025.88;5011790;28;20064;-75
2023/01/21 01:03:05;;;;;;;25.92;15.45;;;;;;;2.50;93.18;99021.28;5024169;28;20025;-74
2023/01/21 01:05:31;;;;;;;26.95;13.85;;;;;;;2.77;94.18;99021.78;5032776;28;20030;-74
2023/01/21 01:07:56;;;;;;;28.30;14.70;;;;;;;3.10;93.13;99008.13;5032934;28;20123;-75
2023/01/21 01:10:22;;;;;;;27.92;16.55;;;;;;;3.15;92.87;99019.16;5032571;28;20075;-75
2023/01/21 01:12:47;;;;;;;28.58;15.15;;;;;;;2.76;91.71;99017.38;5015945;28;20030;-74
2023/01/21 01:15:13;;;;;;;26.02;13.77;;;;;;;2.60;90.27;99003.75;5023089;28;20032;-75
2023/01/21 01:17:38;;;;;;;26.10;13.32;;;;;;;2.52;90.70;99002.47;5031030;28;20061;-74
2023/01/21 01:20:04;;;;;;;29.15;14.40;;;;;;;2.87;90.94;99004.28;5030941;28;20117;-74
2023/01/21 01:22:30;;;;;;;24.92;13.73;;;;;;;2.51;90.10;99000.84;5047802;28;20484;-74
2023/01/21 01:24:55;;;;;;;22.38;13.35;;;;;;;2.51;90.23;99000.00;5032115;28;20029;-74
2023/01/21 01:27:21;;;;;;;15.57;10.73;;;;;;;2.62;89.46;98993.25;5030498;28;20029;-75
2023/01/21 01:29:47;;;;;;;20.75;12.15;;;;;;;2.70;88.66;98986.25;5032406;28;20591;-74
2023/01/21 01:32:13;;;;;;;19.50;12.05;;;;;;;2.65;88.53;98989.91;5032448;28;20049;-74
2023/01/21 01:34:38;;;;;;;21.00;13.10;;;;;;;2.84;89.76;98986.38;5032208;28;20239;-74
2023/01/21 01:37:03;;;;;;;23.95;14.00;;;;;;;3.07;91.01;99001.25;5030734;28;20088;-74
2023/01/21 01:39:30;;;;;;;20.95;12.63;;;;;;;3.13;90.80;98999.25;5031286;28;20527;-74
2023/01/21 01:41:55;;;;;;;21.20;13.02;;;;;;;2.77;87.51;98985.88;5032217;28;20048;-75
2023/01/21 01:44:57;;;;;;;20.83;12.63;;;;;;;2.89;88.81;98977.19;5028609;28;20030;-74
2023/01/21 01:47:38;;;;;;;24.23;11.40;;;;;;;3.11;89.24;98990.44;5012310;28;20409;-74
2023/01/21 01:50:08;;;;;;;20.88;13.77;;;;;;;3.14;89.34;98989.88;5012287;28;20140;-74
2023/01/21 01:52:34;;;;;;;18.98;12.68;;;;;;;3.23;89.34;98999.09;5012359;28;20133;-75
2023/01/21 01:55:02;;;;;;;21.70;11.98;;;;;;;3.27;89.32;98987.47;5023179;28;20041;-75
2023/01/21 01:57:38;;;;;;;30.25;12.85;;;;;;;3.21;90.77;98986.72;5020016;28;20496;-75
2023/01/21 02:00:07;;;;;;;20.92;12.43;;;;;;;3.30;90.64;99003.47;5012094;28;20076;-75
2023/01/21 02:02:33;;;;;;;18.35;12.15;;;;;;;3.41;87.62;98999.44;5012174;28;20447;-75
2023/01/21 02:05:03;;;;;;;20.00;12.00;;;;;;;3.47;86.30;99000.19;5012031;28;20096;-74
2023/01/21 02:07:37;;;;;;;21.55;13.23;;;;;;;3.23;84.61;98990.81;5011978;28;20420;-75
2023/01/21 02:10:05;;;;;;;19.33;12.35;;;;;;;3.20;84.83;98996.94;5026406;28;20041;-75
2023/01/21 02:12:31;;;;;;;20.42;11.90;;;;;;;3.21;86.63;99009.66;5017713;28;20029;-75
2023/01/21 02:14:56;;;;;;;19.85;11.80;;;;;;;3.11;86.72;98993.19;5010599;28;20091;-75
2023/01/21 02:18:09;;;;;;;22.05;11.60;;;;;;;3.25;86.08;99000.75;5026570;28;20046;-75
2023/01/21 02:21:02;;;;;;;21.77;12.23;;;;;;;3.30;86.79;99007.03;5031530;28;20039;-75
2023/01/21 02:23:39;;;;;;;22.50;13.40;;;;;;;3.26;86.84;99007.91;5030853;28;20022;-74
2023/01/21 02:26:20;;;;;;;22.48;13.73;;;;;;;3.24;86.36;99013.78;5031496;28;20036;-75
2023/01/21 02:29:34;;;;;;;20.20;11.70;;;;;;;3.23;87.11;99009.38;5031515;28;20087;-75
2023/01/21 02:32:31;;;;;;;19.42;12.40;;;;;;;3.21;87.31;99004.13;5031366;28;20497;-75
2023/01/21 02:35:08;;;;;;;21.83;12.13;;;;;;;3.13;86.56;98992.91;5030249;28;20037;-74
2023/01/21 02:37:52;;;;;;;20.48;12.93;;;;;;;3.27;86.95;98993.81;5030148;28;20026;-75
2023/01/21 02:40:59;;;;;;;21.75;11.95;;;;;;;3.25;86.54;98998.81;5029748;28;20057;-74
2023/01/21 02:43:46;;;;;;;18.88;11.90;;;;;;;3.05;85.45;98986.09;5023644;28;20041;-75
2023/01/21 02:46:17;;;;;;;17.88;11.73;;;;;;;2.80;88.31;98977.84;5030959;28;20530;-75
2023/01/21 02:49:33;;;;;;;21.05;11.32;;;;;;;2.95;89.70;98985.13;5031446;28;20100;-75
2023/01/21 02:51:58;;;;;;;21.40;13.35;;;;;;;3.07;88.44;98989.41;5044289;28;20041;-75
2023/01/21 02:54:39;;;;;;;21.77;12.95;;;;;;;2.98;88.58;99003.06;5030623;28;20032;-75
2023/01/21 02:57:47;;;;;;;20.67;12.60;;;;;;;2.79;90.47;99005.78;5031224;28;20033;-74
2023/01/21 03:00:21;;;;;;;18.20;11.65;;;;;;;2.76;90.95;99000.81;5035944;28;20048;-75
2023/01/21 03:03:40;;;;;;;21.13;12.77;;;;;;;2.80;89.61;98999.13;5031138;28;20025;-75
2023/01/21 03:06:29;;;;;;;21.15;12.85;;;;;;;2.75;90.26;99005.53;5048851;28;20028;-75
2023/01/21 03:09:16;;;;;;;22.92;14.45;;;;;;;2.47;86.35;98993.41;5037881;28;20060;-74
2023/01/21 03:11:47;;;;;;;24.63;13.32;;;;;;;2.45;85.89;98974.38;5020436;28;20038;-75
2023/01/21 03:17:34;;;;;;;17.67;11.93;;;;;;;2.17;87.81;98967.78;5025710;28;20057;-75
2023/01/21 03:20:27;;;;;;;27.70;13.00;;;;;;;2.29;91.96;98984.75;5015041;28;20037;-74
2023/01/21 03:23:04;;;;;;;23.85;13.63;;;;;;;2.30;89.43;98983.66;5017941;28;20029;-75
2023/01/21 03:25:33;;;;;;;25.15;13.63;;;;;;;2.39;87.97;98979.13;5020879;28;20499;-74
2023/01/21 03:28:03;;;;;;;23.55;13.90;;;;;;;2.47;88.77;98968.56;5024573;28;20021;-74
2023/01/21 03:30:30;;;;;;;25.48;13.95;;;;;;;2.09;91.30;98966.47;5017100;28;20417;-74
2023/01/21 03:32:57;;;;;;;23.70;14.82;;;;;;;1.62;91.47;98941.25;5034722;28;20101;-74
2023/01/21 03:35:28;;;;;;;27.95;14.02;;;;;;;1.94;93.68;98967.47;5034543;28;20021;-74
2023/01/21 03:38:09;;;;;;;36.92;19.17;;;;;;;1.78;89.92;98970.34;5034014;28;20029;-74
2023/01/21 03:40:42;;;;;;;29.80;18.50;;;;;;;1.87;91.32;98959.53;5031189;28;20043;-74
2023/01/21 03:43:08;;;;;;;30.98;17.73;;;;;;;1.81;90.84;98989.09;5034365;28;20017;-74
2023/01/21 03:45:40;;;;;;;31.02;16.40;;;;;;;1.84;90.41;98978.59;5034365;28;20025;-74
2023/01/21 03:48:21;;;;;;;28.13;15.85;;;;;;;1.85;91.14;98977.47;5014501;28;20080;-74
2023/01/21 03:50:54;;;;;;;35.72;21.73;;;;;;;1.98;93.30;98984.22;5014593;28;20026;-75
2023/01/21 03:53:20;;;;;;;25.30;16.05;;;;;;;1.82;91.34;98978.84;5013395;28;20041;-74
2023/01/21 03:55:49;;;;;;;24.52;15.23;;;;;;;1.76;91.12;98989.09;5030547;28;20041;-75
2023/01/21 03:58:15;;;;;;;29.15;17.73;;;;;;;1.56;91.08;98992.84;5034118;28;20018;-74
2023/01/21 04:00:40;;;;;;;28.35;17.30;;;;;;;1.78;92.37;98986.88;5034161;28;20419;-74
2023/01/21 04:03:06;;;;;;;30.23;16.15;;;;;;;1.83;92.64;98991.53;5034068;28;20026;-74
2023/01/21 04:05:31;;;;;;;31.50;16.65;;;;;;;1.75;93.99;98978.34;5032698;28;20037;-74
2023/01/21 04:07:57;;;;;;;28.58;15.52;;;;;;;1.95;93.97;98977.38;5033545;28;20034;-74
2023/01/21 04:10:22;;;;;;;29.58;16.67;;;;;;;1.88;94.53;98991.50;5031742;28;20488;-75
2023/01/21 04:12:47;;;;;;;28.42;17.45;;;;;;;1.77;92.38;98988.00;5033910;28;20026;-74
2023/01/21 04:15:13;;;;;;;31.15;16.90;;;;;;;1.77;93.96;98992.69;5033849;28;20385;-75
2023/01/21 04:17:38;;;;;;;32.97;19.98;;;;;;;1.78;93.90;99000.66;5016469;28;20053;-75
2023/01/21 04:20:05;;;;;;;29.75;17.25;;;;;;;1.93;92.76;99012.69;5013343;28;20033;-75
2023/01/21 04:22:31;;;;;;;29.55;18.40;;;;;;;2.02;91.34;99012.91;5021096;28;20488;-74
2023/01/21 04:24:56;;;;;;;45.70;26.17;;;;;;;1.64;91.69;99007.94;5025497;28;20030;-74
2023/01/21 04:27:22;;;;;;;47.13;26.63;;;;;;;1.98;91.96;99023.69;5013670;28;20026;-75
2023/01/21 04:29:47;;;;;;;48.28;27.63;;;;;;;2.08;91.21;99012.56;5013739;28;20476;-74
2023/01/21 04:32:13;;;;;;;42.80;24.10;;;;;;;1.76;89.35;99019.44;5013765;28;20072;-74
2023/01/21 04:34:38;;;;;;;45.38;25.65;;;;;;;1.82;90.32;99018.31;5012443;28;20034;-75
2023/01/21 04:37:03;;;;;;;38.80;23.10;;;;;;;2.04;89.73;99022.50;5031621;28;20033;-75
2023/01/21 04:39:29;;;;;;;38.60;21.25;;;;;;;2.15;89.14;99025.19;5032995;28;20025;-75
2023/01/21 04:41:54;;;;;;;38.95;21.77;;;;;;;2.00;89.72;99015.94;5033229;28;20121;-75
2023/01/21 04:44:20;;;;;;;30.40;19.75;;;;;;;2.05;88.92;99021.44;5033309;28;20025;-75
2023/01/21 04:46:45;;;;;;;41.33;22.33;;;;;;;2.04;87.07;99019.75;5032937;28;20036;-75
2023/01/21 04:49:11;;;;;;;65.22;34.22;;;;;;;1.87;89.59;99011.09;5031743;28;20026;-75
2023/01/21 04:51:36;;;;;;;50.00;28.42;;;;;;;1.87;90.05;98998.13;5032736;28;20033;-75
2023/01/21 04:54:02;;;;;;;42.78;23.67;;;;;;;1.87;90.97;99013.84;5032180;28;20082;-74
2023/01/21 04:56:27;;;;;;;34.35;21.25;;;;;;;1.89;89.84;99017.97;5013236;28;20049;-74
2023/01/21 04:58:52;;;;;;;37.90;23.98;;;;;;;1.56;89.66;99020.41;5013138;28;20049;-74
2023/01/21 05:01:18;;;;;;;33.85;20.23;;;;;;;1.49;91.35;99026.25;5026572;28;20033;-74
2023/01/21 05:03:43;;;;;;;36.28;21.33;;;;;;;1.61;90.93;99045.19;5029968;28;20022;-75
2023/01/21 05:06:09;;;;;;;27.00;17.85;;;;;;;1.46;91.70;99039.78;5030988;28;20044;-75
2023/01/21 05:08:34;;;;;;;20.83;13.63;;;;;;;1.22;92.39;99049.56;5032585;28;20021;-75
2023/01/21 05:11:00;;;;;;;23.90;14.80;;;;;;;1.18;94.81;99042.94;5032790;28;20492;-75
2023/01/21 05:13:25;;;;;;;21.20;12.27;;;;;;;1.38;95.14;99043.97;5032696;28;20381;-75
2023/01/21 05:15:51;;;;;;;21.08;13.00;;;;;;;1.51;93.59;99031.50;5032300;28;20132;-75
2023/01/21 05:18:17;;;;;;;19.30;12.10;;;;;;;1.37;93.41;99040.38;5032070;28;20025;-74
2023/01/21 05:20:42;;;;;;;19.88;11.55;;;;;;;1.21;95.23;99050.66;5031181;28;20025;-73
2023/01/21 05:23:08;;;;;;;21.95;11.20;;;;;;;1.41;96.37;99051.66;5031636;28;20029;-72
2023/01/21 05:25:33;;;;;;;21.30;12.63;;;;;;;1.41;96.41;99054.41;5032320;28;20032;-73
2023/01/21 05:27:58;;;;;;;21.48;12.20;;;;;;;1.51;95.51;99037.81;5032352;28;20104;-75
2023/01/21 05:30:24;;;;;;;37.20;17.63;;;;;;;1.62;94.22;99046.03;5031409;28;20412;-75
2023/01/21 05:32:54;;;;;;;33.45;18.65;;;;;;;1.69;92.94;99049.28;5032074;28;20029;-72
2023/01/21 05:35:20;;;;;;;45.95;21.95;;;;;;;1.71;91.07;99055.34;5032430;28;20026;-75
2023/01/21 05:37:46;;;;;;;51.58;23.15;;;;;;;1.56;89.81;99045.22;5032262;28;20041;-74
2023/01/21 05:40:14;;;;;;;65.22;22.38;;;;;;;1.62;90.23;99046.03;5047544;28;20025;-78
2023/01/21 05:42:39;;;;;;;41.00;22.23;;;;;;;1.63;90.25;99048.50;5030901;28;20031;-77
2023/01/21 05:45:05;;;;;;;34.88;19.05;;;;;;;1.67;91.28;99040.47;5031750;28;20404;-76
2023/01/21 05:47:31;;;;;;;39.80;21.88;;;;;;;1.66;90.89;99058.13;5018731;28;20026;-80
2023/01/21 05:49:56;;;;;;;37.67;20.88;;;;;;;1.72;90.46;99058.91;5010974;28;20497;-82
2023/01/21 05:52:22;;;;;;;35.22;20.13;;;;;;;1.67;89.33;99043.22;5011440;28;20103;-78
2023/01/21 05:54:47;;;;;;;51.38;26.27;;;;;;;1.60;88.65;99046.28;5023853;28;20396;-78
2023/01/21 05:57:13;;;;;;;41.55;21.00;;;;;;;1.42;90.89;99058.81;5031984;28;20546;-78
2023/01/21 05:59:38;;;;;;;45.22;21.27;;;;;;;1.25;91.46;99081.22;5030936;28;20415;-78
2023/01/21 06:02:04;;;;;;;38.17;20.23;;;;;;;1.34;90.55;99095.25;5020029;28;20025;-74
2023/01/21 06:04:29;;;;;;;61.42;23.92;;;;;;;1.27;91.07;99079.03;5029229;28;20033;-74
2023/01/21 06:06:56;;;;;;;62.30;24.38;;;;;;;1.06;93.08;99059.81;5030404;28;20025;-74
2023/01/21 06:09:21;;;;;;;44.53;22.67;;;;;;;1.08;94.36;99054.00;5031400;28;20029;-74
2023/01/21 06:11:47;;;;;;;89.72;41.85;;;;;;;0.94;93.95;99093.19;5019510;28;20033;-74
2023/01/21 06:14:12;;;;;;;115.78;35.40;;;;;;;0.57;94.00;99080.59;5028751;28;20048;-76
2023/01/21 06:16:38;;;;;;;128.52;36.50;;;;;;;0.19;98.32;99083.69;5029471;28;20049;-74
2023/01/21 06:19:03;;;;;;;91.80;39.80;;;;;;;0.55;98.05;99119.44;5027242;28;20086;-72
2023/01/21 06:21:29;;;;;;;125.10;38.40;;;;;;;0.49;97.66;99089.44;5023949;28;20025;-74
2023/01/21 06:23:54;;;;;;;90.85;44.53;;;;;;;0.00;99.01;99069.66;5027225;28;20013;-75
2023/01/21 06:26:20;;;;;;;54.38;28.00;;;;;;;0.19;99.53;99108.44;5024087;28;20399;-75
2023/01/21 06:28:45;;;;;;;48.50;26.50;;;;;;;0.23;98.28;99128.78;5023548;28;20448;-75
2023/01/21 06:31:11;;;;;;;126.40;68.03;;;;;;;-0.32;100.00;99121.00;5027414;28;20029;-76
2023/01/21 06:33:36;;;;;;;75.72;33.97;;;;;;;-0.46;100.00;99137.22;5028925;28;20595;-78
2023/01/21 06:36:03;;;;;;;78.85;33.05;;;;;;;-0.53;100.00;99138.56;5024153;28;20032;-76
2023/01/21 06:38:29;;;;;;;83.75;42.25;;;;;;;-0.59;100.00;99132.22;5023846;28;20053;-78
2023/01/21 06:40:54;;;;;;;54.88;26.23;;;;;;;-0.37;100.00;99117.41;5019988;28;20056;-77
2023/01/21 06:43:19;;;;;;;49.22;20.67;;;;;;;-0.11;100.00;99126.56;5016348;28;20038;-78
2023/01/21 06:45:45;;;;;;;77.90;30.35;;;;;;;-0.16;100.00;99121.88;5011429;28;20041;-79
2023/01/21 06:48:11;;;;;;;102.25;45.83;;;;;;;-0.40;100.00;99106.97;5017505;28;20082;-78
2023/01/21 06:50:36;;;;;;;64.03;33.13;;;;;;;-0.02;100.00;99116.69;5016521;28;20026;-77
2023/01/21 06:53:02;;;;;;;58.67;31.38;;;;;;;0.12;100.00;99119.72;5008090;28;20036;-72
2023/01/21 06:55:28;;;;;;;59.80;31.30;;;;;;;0.43;100.00;99112.56;5010743;28;20022;-73
2023/01/21 06:57:53;;;;;;;76.75;42.38;;;;;;;0.67;100.00;99110.06;5012255;28;20026;-72
2023/01/21 07:00:19;;;;;;;39.88;23.58;;;;;;;0.50;100.00;99119.44;5010032;28;20033;-71
2023/01/21 07:02:44;;;;;;;47.47;26.73;;;;;;;0.54;100.00;99125.22;5017696;28;20528;-71
2023/01/21 07:05:10;;;;;;;69.05;40.30;;;;;;;0.12;100.00;99138.97;5016400;28;20859;-71
2023/01/21 07:07:35;;;;;;;57.67;31.20;;;;;;;0.10;100.00;99141.16;5017809;28;20497;-72
2023/01/21 07:10:01;;;;;;;50.45;28.92;;;;;;;0.03;100.00;99146.13;5016274;28;20033;-71
2023/01/21 07:12:26;;;;;;;45.45;23.92;;;;;;;0.15;100.00;99153.28;5016751;28;20798;-73
2023/01/21 07:14:52;;;;;;;59.38;28.58;;;;;;;0.00;100.00;99143.91;5017843;28;20033;-77
2023/01/21 07:17:18;;;;;;;59.28;29.52;;;;;;;0.01;100.00;99151.06;5017048;28;20053;-73
2023/01/21 07:19:43;;;;;;;60.33;31.40;;;;;;;0.07;100.00;99141.72;5015052;28;20029;-82
2023/01/21 07:22:08;;;;;;;74.95;34.88;;;;;;;0.14;100.00;99146.94;5019797;28;20025;-73
2023/01/21 07:24:34;;;;;;;52.45;27.83;;;;;;;0.16;100.00;99139.22;5018871;28;20033;-82
2023/01/21 07:26:59;;;;;;;89.57;37.08;;;;;;;0.23;100.00;99141.72;5013175;28;20479;-75
2023/01/21 07:29:26;;;;;;;89.35;34.83;;;;;;;0.28;100.00;99147.22;5014276;28;20032;-74
2023/01/21 07:31:52;;;;;;;252.23;99.15;;;;;;;0.29;100.00;99143.38;5016357;28;20127;-74
2023/01/21 07:34:17;;;;;;;292.13;137.77;;;;;;;0.48;100.00;99137.31;5021290;28;20033;-80
2023/01/21 07:36:43;;;;;;;299.75;156.82;;;;;;;0.89;100.00;99139.19;5017305;28;20427;-76
2023/01/21 07:39:08;;;;;;;266.48;146.20;;;;;;;0.87;100.00;99131.22;5020769;28;20390;-80
2023/01/21 07:41:34;;;;;;;271.13;156.77;;;;;;;1.06;100.00;99128.69;5018591;28;20408;-73
2023/01/21 07:43:59;;;;;;;132.98;69.05;;;;;;;1.22;100.00;99146.00;5021631;28;20059;-74
2023/01/21 07:46:25;;;;;;;88.68;41.50;;;;;;;0.97;100.00;99138.63;5016892;28;20033;-74
2023/01/21 07:48:51;;;;;;;200.05;123.05;;;;;;;1.01;100.00;99134.19;5018184;28;20143;-73
2023/01/21 07:51:18;;;;;;;95.03;46.10;;;;;;;0.85;100.00;99125.16;5016896;28;20518;-70
2023/01/21 07:53:44;;;;;;;88.20;41.90;;;;;;;1.00;100.00;99137.25;5020198;28;20103;-73
2023/01/21 07:56:09;;;;;;;107.95;55.60;;;;;;;1.00;100.00;99154.59;5014472;28;20041;-72
2023/01/21 07:58:35;;;;;;;80.97;39.45;;;;;;;1.02;100.00;99154.31;5020956;28;20029;-73
2023/01/21 08:01:08;;;;;;;93.50;50.38;;;;;;;1.16;100.00;99163.63;5021046;28;20046;-74
2023/01/21 08:03:35;;;;;;;85.30;44.13;;;;;;;1.40;100.00;99177.63;5020315;28;20474;-70
2023/01/21 08:06:00;;;;;;;105.20;50.40;;;;;;;1.26;100.00;99154.50;5025667;28;20086;-73
2023/01/21 08:08:26;;;;;;;102.97;49.92;;;;;;;1.71;100.00;99173.91;5021780;28;20033;-73
2023/01/21 08:10:52;;;;;;;102.45;47.28;;;;;;;1.70;100.00;99164.00;5022796;28;20036;-73
2023/01/21 08:13:18;;;;;;;101.30;46.65;;;;;;;1.84;100.00;99168.88;5028213;28;20045;-75
2023/01/21 08:15:43;;;;;;;84.47;44.22;;;;;;;1.93;100.00;99167.16;5029446;28;20484;-73
2023/01/21 08:18:09;;;;;;;99.45;49.38;;;;;;;1.84;100.00;99185.44;5024112;28;20516;-72
2023/01/21 08:20:34;;;;;;;105.57;52.90;;;;;;;1.98;100.00;99172.66;5026899;28;20411;-71
2023/01/21 08:23:00;;;;;;;93.95;45.53;;;;;;;2.04;100.00;99182.53;5028382;28;20106;-76
2023/01/21 08:25:26;;;;;;;98.70;47.67;;;;;;;2.20;100.00;99171.44;5028668;28;20032;-78
2023/01/21 08:27:51;;;;;;;110.82;55.22;;;;;;;2.14;100.00;99165.13;5029740;28;20029;-81
2023/01/21 08:30:17;;;;;;;106.65;53.92;;;;;;;2.10;100.00;99158.50;5028606;28;20116;-75
2023/01/21 08:32:42;;;;;;;110.32;52.70;;;;;;;2.51;100.00;99171.19;5030342;28;20055;-77
2023/01/21 08:35:08;;;;;;;97.15;46.10;;;;;;;2.57;100.00;99155.41;5029139;28;20029;-78
2023/01/21 08:37:34;;;;;;;81.70;41.33;;;;;;;2.68;100.00;99156.94;5030405;28;20184;-71
2023/01/21 08:40:00;;;;;;;86.70;40.63;;;;;;;2.82;100.00;99165.41;5024685;28;20061;-75
2023/01/21 08:42:25;;;;;;;84.63;40.50;;;;;;;2.78;100.00;99161.59;5024053;28;20575;-77
2023/01/21 08:44:52;;;;;;;74.63;37.30;;;;;;;2.90;100.00;99155.66;5026922;28;20454;-74
2023/01/21 08:47:18;;;;;;;84.28;42.13;;;;;;;3.02;100.00;99164.38;5023231;28;20029;-74
2023/01/21 08:49:44;;;;;;;90.15;42.78;;;;;;;3.07;100.00;99139.44;5025600;28;20031;-74
2023/01/21 08:52:09;;;;;;;182.60;87.68;;;;;;;3.15;100.00;99145.44;5025002;28;20045;-75
2023/01/21 08:54:35;;;;;;;113.18;52.75;;;;;;;3.09;100.00;99133.63;5028103;28;20475;-78
2023/01/21 08:57:00;;;;;;;402.35;172.15;;;;;;;3.09;100.00;99141.91;5023008;28;20191;-76
2023/01/21 08:59:27;;;;;;;214.55;92.60;;;;;;;3.28;100.00;99143.94;5028657;28;20373;-77
2023/01/21 09:01:56;;;;;;;327.30;135.10;;;;;;;3.22;100.00;99107.22;5011239;28;20065;-73
2023/01/21 09:04:22;;;;;;;76.28;35.83;;;;;;;3.35;100.00;99127.78;5027749;28;20095;-73
2023/01/21 09:06:48;;;;;;;60.95;30.17;;;;;;;3.47;100.00;99128.19;5031450;28;20112;-73
2023/01/21 09:09:13;;;;;;;103.75;44.05;;;;;;;3.57;100.00;99134.72;5025535;28;20120;-73
2023/01/21 09:11:39;;;;;;;67.75;33.75;;;;;;;3.73;100.00;99146.41;5016116;28;20036;-74
2023/01/21 09:14:05;;;;;;;61.13;27.85;;;;;;;3.75;100.00;99133.94;5013325;28;20126;-73
2023/01/21 09:16:31;;;;;;;49.40;26.20;;;;;;;3.74;100.00;99132.28;5024320;28;20044;-74
2023/01/21 09:19:00;;;;;;;55.97;27.38;;;;;;;3.81;100.00;99128.31;5039511;28;20407;-72
2023/01/21 09:21:26;;;;;;;53.33;27.08;;;;;;;4.16;99.94;99128.91;5021668;28;20411;-73
2023/01/21 09:23:52;;;;;;;59.40;27.15;;;;;;;4.06;98.25;99135.44;5025085;28;20032;-73
2023/01/21 09:26:18;;;;;;;62.70;34.00;;;;;;;4.12;98.75;99133.41;5016488;28;20396;-73
2023/01/21 09:28:46;;;;;;;47.08;23.55;;;;;;;4.24;97.26;99122.69;5028966;28;20034;-73
2023/01/21 09:31:14;;;;;;;50.15;25.58;;;;;;;4.47;95.93;99114.59;5025752;28;20017;-74
2023/01/21 09:33:44;;;;;;;55.92;27.30;;;;;;;4.29;96.23;99106.00;5028271;28;20021;-76
2023/01/21 09:36:16;;;;;;;173.85;82.32;;;;;;;4.42;97.12;99120.19;5032961;28;20029;-72
2023/01/21 09:38:43;;;;;;;53.88;26.73;;;;;;;4.45;95.64;99114.88;5029326;28;20509;-74
2023/01/21 09:41:34;;;;;;;52.72;27.00;;;;;;;4.64;95.46;99108.44;5020991;28;20103;-75
2023/01/21 09:44:21;;;;;;;52.92;26.52;;;;;;;4.79;94.31;99104.59;5035391;28;20605;-72
2023/01/21 09:47:08;;;;;;;76.75;37.00;;;;;;;4.83;93.12;99102.03;5031818;28;20679;-73
2023/01/21 09:49:41;;;;;;;51.88;24.58;;;;;;;4.72;93.58;99080.03;5021359;28;20025;-73
2023/01/21 09:52:38;;;;;;;58.05;31.30;;;;;;;4.88;95.07;99085.28;5027899;28;20033;-72
2023/01/21 09:55:10;;;;;;;50.53;25.25;;;;;;;5.01;93.34;99080.91;5017856;28;20029;-72
2023/01/21 09:57:50;;;;;;;48.63;24.95;;;;;;;5.25;92.43;99080.72;5037636;28;20059;-74
2023/01/21 10:00:47;;;;;;;50.20;26.95;;;;;;;5.01;92.48;99083.66;5043156;28;20044;-72
2023/01/21 10:03:22;;;;;;;49.75;25.80;;;;;;;5.15;92.71;99084.50;5039804;28;20503;-78
2023/01/21 10:06:08;;;;;;;46.53;25.58;;;;;;;5.03;93.13;99070.31;5047401;28;20033;-77
2023/01/21 10:09:18;;;;;;;45.40;23.52;;;;;;;4.92;92.71;99075.25;5029957;28;20036;-82
2023/01/21 10:12:11;;;;;;;41.88;21.00;;;;;;;4.99;93.67;99066.53;5025265;28;20076;-75
2023/01/21 10:14:42;;;;;;;44.80;24.02;;;;;;;4.95;93.70;99068.25;5030750;28;20025;-74
2023/01/21 10:17:17;;;;;;;47.50;23.35;;;;;;;4.86;95.79;99074.53;5036324;28;20045;-73
2023/01/21 10:19:51;;;;;;;49.67;25.25;;;;;;;5.03;95.25;99078.63;5037460;28;20047;-80
2023/01/21 10:22:22;;;;;;;54.13;24.80;;;;;;;5.11;94.90;99072.38;5041482;28;20066;-73
2023/01/21 10:25:01;;;;;;;45.53;23.15;;;;;;;5.11;94.31;99072.38;5026830;28;20112;-77
2023/01/21 10:27:32;;;;;;;64.55;29.27;;;;;;;5.34;93.62;99075.25;5038107;28;20029;-76
2023/01/21 10:30:04;;;;;;;67.93;33.35;;;;;;;5.26;93.22;99051.00;5031300;28;20033;-74
2023/01/21 10:32:32;;;;;;;56.53;28.35;;;;;;;5.26;94.21;99039.91;5036583;28;20036;-75
2023/01/21 10:34:57;;;;;;;58.13;26.83;;;;;;;5.30;94.71;99038.16;5040246;28;20038;-75
2023/01/21 10:37:51;;;;;;;57.50;29.65;;;;;;;5.34;94.13;99022.56;5023068;28;20017;-73
2023/01/21 10:40:42;;;;;;;67.65;33.97;;;;;;;5.54;93.28;99026.00;5018109;28;20102;-75
2023/01/21 10:43:38;;;;;;;55.03;27.25;;;;;;;5.57;92.73;99025.38;5027818;28;20067;-73
2023/01/21 10:46:19;;;;;;;88.80;39.45;;;;;;;5.74;91.63;99028.28;5021315;28;20041;-74
2023/01/21 10:48:58;;;;;;;612.63;255.73;;;;;;;6.10;91.84;99006.38;5015690;28;20448;-74
2023/01/21 10:51:41;;;;;;;861.53;356.15;;;;;;;6.47;90.40;98998.75;5018321;28;20030;-73
2023/01/21 10:54:42;;;;;;;216.48;83.22;;;;;;;6.73;88.44;98998.06;5026580;28;20026;-74
2023/01/21 10:57:26;;;;;;;89.22;39.63;;;;;;;6.53;87.82;99014.16;5040834;28;20162;-74
2023/01/21 10:59:54;;;;;;;54.00;28.17;;;;;;;6.35;88.22;99004.91;5032480;28;20520;-77
2023/01/21 11:02:30;;;;;;;63.08;32.00;;;;;;;5.79;90.97;98996.00;5031946;28;20307;-74
2023/01/21 11:05:00;;;;;;;56.20;30.13;;;;;;;5.99;92.20;99003.84;5018962;28;20036;-73
2023/01/21 11:07:33;;;;;;;87.70;53.75;;;;;;;5.89;93.41;99010.47;5025345;28;20022;-73
2023/01/21 11:10:00;;;;;;;92.78;55.78;;;;;;;6.23;91.87;98999.94;5029487;28;20022;-73
2023/01/21 11:12:25;;;;;;;79.90;43.03;;;;;;;6.30;90.89;98996.72;5030037;28;20460;-74
2023/01/21 11:14:56;;;;;;;60.92;30.30;;;;;;;6.51;89.50;98991.41;5027380;28;20067;-73
2023/01/21 11:17:33;;;;;;;61.95;32.55;;;;;;;6.72;88.64;98968.63;5031797;28;20083;-74
2023/01/21 11:20:01;;;;;;;60.42;32.42;;;;;;;6.76;88.49;98972.41;5022585;28;20033;-73
2023/01/21 11:22:30;;;;;;;57.50;32.55;;;;;;;6.28;89.09;98982.31;5044981;28;20025;-73
2023/01/21 11:24:56;;;;;;;63.60;31.08;;;;;;;6.55;89.33;98978.53;5033377;28;20082;-73
2023/01/21 11:27:31;;;;;;;53.60;29.75;;;;;;;6.71;89.32;98983.66;5041808;28;20446;-73
2023/01/21 11:29:57;;;;;;;93.35;49.35;;;;;;;6.67;89.16;98971.56;5046342;28;20494;-75
2023/01/21 11:32:26;;;;;;;67.18;34.35;;;;;;;6.64;89.82;98963.88;5037437;28;20029;-73
2023/01/21 11:35:08;;;;;;;60.85;32.60;;;;;;;6.62;89.78;98974.47;5015167;28;20021;-73
2023/01/21 11:37:36;;;;;;;58.63;31.40;;;;;;;6.95;89.20;98972.16;5028482;28;20021;-73
2023/01/21 11:40:19;;;;;;;138.10;66.40;;;;;;;7.13;88.75;98964.66;5045062;28;20402;-73